createdAt,value
2024-02-02T00:00:25.131Z,18.72
2024-02-02T00:01:25.245Z,18.73
2024-02-02T00:02:25.346Z,18.72
2024-02-02T00:03:25.509Z,18.73
2024-02-02T00:04:25.405Z,18.72
2024-02-02T00:05:25.362Z,18.72
2024-02-02T00:06:25.507Z,18.72
2024-02-02T00:07:25.596Z,18.72
2024-02-02T00:08:25.556Z,18.72
2024-02-02T00:09:25.684Z,18.71
2024-02-02T00:10:25.705Z,18.71
2024-02-02T00:11:25.740Z,18.70
2024-02-02T00:12:25.881Z,18.71
2024-02-02T00:13:25.846Z,18.72
2024-02-02T00:14:25.916Z,18.72
2024-02-02T00:15:26.038Z,18.71
2024-02-02T00:16:26.026Z,18.71
2024-02-02T00:17:26.155Z,18.71
2024-02-02T00:18:26.453Z,18.70
2024-02-02T00:19:26.271Z,18.71
2024-02-02T00:20:26.305Z,18.71
2024-02-02T00:21:26.400Z,18.71
2024-02-02T00:22:26.444Z,18.72
2024-02-02T00:23:26.482Z,18.71
2024-02-02T00:24:26.683Z,18.71
2024-02-02T00:25:26.584Z,18.70
2024-02-02T00:26:26.690Z,18.71
2024-02-02T00:27:26.800Z,18.71
2024-02-02T00:28:26.772Z,18.71
2024-02-02T00:29:26.824Z,18.71
2024-02-02T00:30:26.935Z,18.71
2024-02-02T00:31:26.973Z,18.71
2024-02-02T00:32:27.004Z,18.70
2024-02-02T00:33:27.157Z,18.71
2024-02-02T00:34:27.279Z,18.70
2024-02-02T00:35:27.181Z,18.70
2024-02-02T00:36:27.264Z,18.70
2024-02-02T00:37:27.307Z,18.70
2024-02-02T00:38:27.367Z,18.70
2024-02-02T00:39:27.624Z,18.71
2024-02-02T00:40:27.503Z,18.70
2024-02-02T00:41:27.504Z,18.70
2024-02-02T00:42:27.633Z,18.71
2024-02-02T00:43:27.685Z,18.71
2024-02-02T00:44:27.727Z,18.70
2024-02-02T00:45:27.833Z,18.70
2024-02-02T00:46:27.826Z,18.70
2024-02-02T00:47:27.919Z,18.69
2024-02-02T00:48:28.044Z,18.70
2024-02-02T00:49:28.186Z,18.70
2024-02-02T00:50:28.095Z,18.70
2024-02-02T00:51:28.211Z,18.70
2024-02-02T00:52:28.198Z,18.70
2024-02-02T00:53:28.249Z,18.70
2024-02-02T00:54:28.452Z,18.70
2024-02-02T00:55:28.352Z,18.70
2024-02-02T00:56:28.484Z,18.70
2024-02-02T00:57:28.501Z,18.69
2024-02-02T00:58:28.540Z,18.69
2024-02-02T00:59:28.639Z,18.69
2024-02-02T01:00:28.713Z,18.69
2024-02-02T01:01:28.732Z,18.70
2024-02-02T01:02:28.775Z,18.70
2024-02-02T01:03:29.000Z,18.70
2024-02-02T01:04:29.093Z,18.70
2024-02-02T01:05:28.993Z,18.69
2024-02-02T01:06:29.088Z,18.69
2024-02-02T01:07:29.103Z,18.69
2024-02-02T01:08:29.139Z,18.69
2024-02-02T01:09:29.292Z,18.68
2024-02-02T01:10:29.293Z,18.69
2024-02-02T01:11:29.347Z,18.70
2024-02-02T01:12:29.522Z,18.70
2024-02-02T01:13:29.471Z,18.69
2024-02-02T01:14:29.530Z,18.69
2024-02-02T01:15:29.684Z,18.69
2024-02-02T01:16:31.982Z,18.69
2024-02-02T01:17:29.708Z,18.69
2024-02-02T01:18:29.859Z,18.69
2024-02-02T01:19:29.743Z,18.69
2024-02-02T01:20:29.752Z,18.68
2024-02-02T01:21:29.882Z,18.69
2024-02-02T01:22:29.733Z,18.69
2024-02-02T01:23:29.810Z,18.68
2024-02-02T01:24:29.870Z,18.69
2024-02-02T01:25:29.796Z,18.69
2024-02-02T01:26:29.881Z,18.68
2024-02-02T01:27:29.911Z,18.67
2024-02-02T01:28:29.863Z,18.67
2024-02-02T01:29:29.850Z,18.67
2024-02-02T01:30:29.896Z,18.67
2024-02-02T01:31:29.911Z,18.68
2024-02-02T01:32:29.939Z,18.68
2024-02-02T01:33:29.999Z,18.69
2024-02-02T01:34:30.035Z,18.68
2024-02-02T01:35:29.954Z,18.68
2024-02-02T01:36:30.002Z,18.67
2024-02-02T01:37:29.972Z,18.67
2024-02-02T01:38:30.009Z,18.67
2024-02-02T01:39:30.046Z,18.67
2024-02-02T01:40:30.045Z,18.67
2024-02-02T01:41:30.064Z,18.68
2024-02-02T01:42:30.078Z,18.67
2024-02-02T01:43:30.092Z,18.68
2024-02-02T01:44:30.106Z,18.67
2024-02-02T01:45:30.165Z,18.67
2024-02-02T01:46:30.126Z,18.67
2024-02-02T01:47:30.299Z,18.67
2024-02-02T01:48:30.448Z,18.67
2024-02-02T01:49:30.364Z,18.66
2024-02-02T01:50:30.177Z,18.66
2024-02-02T01:51:30.301Z,18.66
2024-02-02T01:52:30.156Z,18.66
2024-02-02T01:53:30.177Z,18.66
2024-02-02T01:54:30.310Z,18.66
2024-02-02T01:55:30.316Z,18.65
2024-02-02T01:56:30.387Z,18.66
2024-02-02T01:57:30.545Z,18.66
2024-02-02T01:58:30.552Z,18.66
2024-02-02T01:59:30.593Z,18.66
2024-02-02T02:00:30.751Z,18.66
2024-02-02T02:01:30.755Z,18.65
2024-02-02T02:02:30.807Z,18.66
2024-02-02T02:03:30.950Z,18.66
2024-02-02T02:04:30.970Z,18.66
2024-02-02T02:05:31.053Z,18.66
2024-02-02T02:06:31.120Z,18.66
2024-02-02T02:07:31.201Z,18.66
2024-02-02T02:08:31.179Z,18.65
2024-02-02T02:09:31.275Z,18.65
2024-02-02T02:10:31.356Z,18.65
2024-02-02T02:11:31.413Z,18.65
2024-02-02T02:12:31.519Z,18.66
2024-02-02T02:13:31.633Z,18.65
2024-02-02T02:14:31.609Z,18.65
2024-02-02T02:15:31.807Z,18.66
2024-02-02T02:16:31.730Z,18.66
2024-02-02T02:17:31.846Z,18.65
2024-02-02T02:18:31.953Z,18.65
2024-02-02T02:19:32.045Z,18.65
2024-02-02T02:20:32.069Z,18.65
2024-02-02T02:21:32.219Z,18.64
2024-02-02T02:22:32.156Z,18.64
2024-02-02T02:23:32.241Z,18.63
2024-02-02T02:24:32.378Z,18.63
2024-02-02T02:25:32.409Z,18.63
2024-02-02T02:26:32.494Z,18.63
2024-02-02T02:27:32.580Z,18.63
2024-02-02T02:28:32.545Z,18.62
2024-02-02T02:29:32.663Z,18.63
2024-02-02T02:30:32.772Z,18.63
2024-02-02T02:31:32.775Z,18.63
2024-02-02T02:32:32.932Z,18.63
2024-02-02T02:33:32.997Z,18.64
2024-02-02T02:34:33.111Z,18.64
2024-02-02T02:35:33.064Z,18.64
2024-02-02T02:36:33.154Z,18.63
2024-02-02T02:37:33.212Z,18.64
2024-02-02T02:38:33.273Z,18.64
2024-02-02T02:39:33.413Z,18.63
2024-02-02T02:40:33.459Z,18.62
2024-02-02T02:41:33.508Z,18.63
2024-02-02T02:42:33.630Z,18.63
2024-02-02T02:43:33.652Z,18.63
2024-02-02T02:44:33.735Z,18.63
2024-02-02T02:45:33.934Z,18.64
2024-02-02T02:46:33.929Z,18.63
2024-02-02T02:47:34.073Z,18.63
2024-02-02T02:48:34.120Z,18.63
2024-02-02T02:49:34.336Z,18.63
2024-02-02T02:50:34.134Z,18.63
2024-02-02T02:51:34.199Z,18.63
2024-02-02T02:52:34.259Z,18.63
2024-02-02T02:53:34.325Z,18.63
2024-02-02T02:54:34.470Z,18.62
2024-02-02T02:55:34.468Z,18.62
2024-02-02T02:56:34.518Z,18.62
2024-02-02T02:57:34.616Z,18.62
2024-02-02T02:58:34.620Z,18.63
2024-02-02T02:59:34.764Z,18.63
2024-02-02T03:00:34.807Z,18.62
2024-02-02T03:01:34.851Z,18.62
2024-02-02T03:02:34.923Z,18.63
2024-02-02T03:03:35.139Z,18.63
2024-02-02T03:04:35.167Z,18.63
2024-02-02T03:05:35.206Z,18.63
2024-02-02T03:06:35.333Z,18.63
2024-02-02T03:07:35.267Z,18.62
2024-02-02T03:08:35.322Z,18.62
2024-02-02T03:09:35.443Z,18.62
2024-02-02T03:10:35.491Z,18.63
2024-02-02T03:11:35.532Z,18.63
2024-02-02T03:12:35.625Z,18.62
2024-02-02T03:13:35.677Z,18.62
2024-02-02T03:14:35.750Z,18.62
2024-02-02T03:15:35.903Z,18.62
2024-02-02T03:16:35.881Z,18.62
2024-02-02T03:17:36.001Z,18.62
2024-02-02T03:18:36.166Z,18.62
2024-02-02T03:19:36.199Z,18.62
2024-02-02T03:20:36.164Z,18.61
2024-02-02T03:21:36.353Z,18.62
2024-02-02T03:22:36.286Z,18.62
2024-02-02T03:23:36.457Z,18.62
2024-02-02T03:24:36.439Z,18.61
2024-02-02T03:25:36.485Z,18.61
2024-02-02T03:26:36.548Z,18.61
2024-02-02T03:27:36.683Z,18.60
2024-02-02T03:28:36.668Z,18.61
2024-02-02T03:29:36.770Z,18.61
2024-02-02T03:30:36.865Z,18.62
2024-02-02T03:31:36.942Z,18.61
2024-02-02T03:32:37.032Z,18.62
2024-02-02T03:33:37.183Z,18.62
2024-02-02T03:34:37.196Z,18.61
2024-02-02T03:35:37.172Z,18.61
2024-02-02T03:36:37.298Z,18.61
2024-02-02T03:37:37.356Z,18.61
2024-02-02T03:38:37.374Z,18.61
2024-02-02T03:39:37.530Z,18.60
2024-02-02T03:40:37.548Z,18.61
2024-02-02T03:41:37.607Z,18.60
2024-02-02T03:42:37.710Z,18.60
2024-02-02T03:43:37.733Z,18.61
2024-02-02T03:44:37.820Z,18.60
2024-02-02T03:45:37.939Z,18.60
2024-02-02T03:46:37.966Z,18.61
2024-02-02T03:47:38.095Z,18.60
2024-02-02T03:48:38.236Z,18.60
2024-02-02T03:49:38.160Z,18.60
2024-02-02T03:50:38.240Z,18.59
2024-02-02T03:51:38.357Z,18.59
2024-02-02T03:52:38.394Z,18.59
2024-02-02T03:53:38.453Z,18.59
2024-02-02T03:54:38.515Z,18.60
2024-02-02T03:55:38.597Z,18.59
2024-02-02T03:56:38.631Z,18.60
2024-02-02T03:57:38.806Z,18.60
2024-02-02T03:58:38.791Z,18.60
2024-02-02T03:59:38.842Z,18.59
2024-02-02T04:00:39.003Z,18.59
2024-02-02T04:01:39.016Z,18.59
2024-02-02T04:02:39.139Z,18.58
2024-02-02T04:03:39.231Z,18.59
2024-02-02T04:04:39.247Z,18.59
2024-02-02T04:05:39.319Z,18.59
2024-02-02T04:06:39.421Z,18.59
2024-02-02T04:07:39.415Z,18.58
2024-02-02T04:08:41.136Z,18.59
2024-02-02T04:09:39.565Z,18.59
2024-02-02T04:10:39.510Z,18.59
2024-02-02T04:11:39.567Z,18.58
2024-02-02T04:12:39.585Z,18.58
2024-02-02T04:13:39.621Z,18.59
2024-02-02T04:14:39.629Z,18.59
2024-02-02T04:15:39.730Z,18.58
2024-02-02T04:16:39.627Z,18.59
2024-02-02T04:17:39.662Z,18.59
2024-02-02T04:18:39.796Z,18.58
2024-02-02T04:19:39.811Z,18.59
2024-02-02T04:20:39.716Z,18.59
2024-02-02T04:21:39.711Z,18.58
2024-02-02T04:22:39.732Z,18.58
2024-02-02T04:23:39.737Z,18.58
2024-02-02T04:24:39.761Z,18.59
2024-02-02T04:25:39.740Z,18.59
2024-02-02T04:26:39.798Z,18.58
2024-02-02T04:27:39.840Z,18.59
2024-02-02T04:28:39.790Z,18.58
2024-02-02T04:29:39.835Z,18.58
2024-02-02T04:30:39.874Z,18.58
2024-02-02T04:31:39.871Z,18.57
2024-02-02T04:32:40.028Z,18.58
2024-02-02T04:33:39.915Z,18.58
2024-02-02T04:34:40.077Z,18.58
2024-02-02T04:35:39.890Z,18.57
2024-02-02T04:36:39.996Z,18.57
2024-02-02T04:37:40.930Z,18.58
2024-02-02T04:38:39.937Z,18.58
2024-02-02T04:39:40.009Z,18.57
2024-02-02T04:40:39.952Z,18.58
2024-02-02T04:41:40.040Z,18.57
2024-02-02T04:42:40.002Z,18.57
2024-02-02T04:43:40.067Z,18.57
2024-02-02T04:44:40.022Z,18.56
2024-02-02T04:45:40.059Z,18.57
2024-02-02T04:46:40.052Z,18.57
2024-02-02T04:47:40.075Z,18.56
2024-02-02T04:48:40.269Z,18.56
2024-02-02T04:49:40.191Z,18.56
2024-02-02T04:50:40.095Z,18.56
2024-02-02T04:51:40.190Z,18.56
2024-02-02T04:52:40.227Z,18.56
2024-02-02T04:53:40.284Z,18.56
2024-02-02T04:54:40.351Z,18.55
2024-02-02T04:55:40.449Z,18.56
2024-02-02T04:56:40.497Z,18.56
2024-02-02T04:57:40.645Z,18.56
2024-02-02T04:58:40.661Z,18.56
2024-02-02T04:59:40.718Z,18.56
2024-02-02T05:00:40.804Z,18.56
2024-02-02T05:01:40.937Z,18.56
2024-02-02T05:02:40.955Z,18.56
2024-02-02T05:03:48.369Z,18.54
2024-02-02T05:04:48.346Z,18.55
2024-02-02T05:05:48.379Z,18.55
2024-02-02T05:06:48.359Z,18.55
2024-02-02T05:07:48.460Z,18.55
2024-02-02T05:08:48.412Z,18.55
2024-02-02T05:09:48.430Z,18.56
2024-02-02T05:10:48.462Z,18.55
2024-02-02T05:11:48.416Z,18.56
2024-02-02T05:12:48.487Z,18.56
2024-02-02T05:13:48.449Z,18.56
2024-02-02T05:14:48.451Z,18.56
2024-02-02T05:15:48.465Z,18.56
2024-02-02T05:16:48.446Z,18.56
2024-02-02T05:17:48.597Z,18.56
2024-02-02T05:18:48.609Z,18.55
2024-02-02T05:19:48.470Z,18.55
2024-02-02T05:20:48.489Z,18.55
2024-02-02T05:21:48.518Z,18.55
2024-02-02T05:22:48.501Z,18.55
2024-02-02T05:23:49.994Z,18.55
2024-02-02T05:24:48.577Z,18.55
2024-02-02T05:25:48.564Z,18.56
2024-02-02T05:26:48.590Z,18.55
2024-02-02T05:27:48.568Z,18.55
2024-02-02T05:28:48.537Z,18.55
2024-02-02T05:29:48.651Z,18.55
2024-02-02T05:30:48.756Z,18.55
2024-02-02T05:31:48.794Z,18.55
2024-02-02T05:32:48.921Z,18.55
2024-02-02T05:33:49.008Z,18.56
2024-02-02T05:34:49.080Z,18.56
2024-02-02T05:35:49.071Z,18.56
2024-02-02T05:36:49.145Z,18.57
2024-02-02T05:37:49.245Z,18.57
2024-02-02T05:38:49.296Z,18.56
2024-02-02T05:39:49.443Z,18.56
2024-02-02T05:40:49.409Z,18.57
2024-02-02T05:41:49.512Z,18.57
2024-02-02T05:42:49.627Z,18.58
2024-02-02T05:43:49.643Z,18.59
2024-02-02T05:44:49.745Z,18.60
2024-02-02T05:45:49.770Z,18.61
2024-02-02T05:46:49.843Z,18.62
2024-02-02T05:47:49.969Z,18.64
2024-02-02T05:48:50.910Z,18.65
2024-02-02T05:49:50.084Z,18.66
2024-02-02T05:50:50.138Z,18.67
2024-02-02T05:51:50.186Z,18.69
2024-02-02T05:52:50.215Z,18.70
2024-02-02T05:53:50.245Z,18.72
2024-02-02T05:54:50.314Z,18.73
2024-02-02T05:55:50.379Z,18.74
2024-02-02T05:56:50.482Z,18.75
2024-02-02T05:57:50.488Z,18.76
2024-02-02T05:58:50.553Z,18.78
2024-02-02T05:59:50.631Z,18.79
2024-02-02T06:00:50.719Z,18.80
2024-02-02T06:01:50.671Z,18.81
2024-02-02T06:02:50.748Z,18.81
2024-02-02T06:03:50.964Z,18.82
2024-02-02T06:04:50.865Z,18.84
2024-02-02T06:05:51.024Z,18.85
2024-02-02T06:06:50.992Z,18.86
2024-02-02T06:07:50.965Z,18.87
2024-02-02T06:08:51.046Z,18.88
2024-02-02T06:09:51.030Z,18.89
2024-02-02T06:10:51.083Z,18.89
2024-02-02T06:11:51.210Z,18.90
2024-02-02T06:12:51.264Z,18.90
2024-02-02T06:13:51.199Z,18.91
2024-02-02T06:14:51.381Z,18.92
2024-02-02T06:15:51.287Z,18.92
2024-02-02T06:16:51.453Z,18.93
2024-02-02T06:17:53.628Z,18.93
2024-02-02T06:18:51.601Z,18.93
2024-02-02T06:19:51.595Z,18.94
2024-02-02T06:20:51.591Z,18.95
2024-02-02T06:21:51.592Z,18.95
2024-02-02T06:22:51.610Z,18.96
2024-02-02T06:23:51.699Z,18.96
2024-02-02T06:24:51.721Z,18.97
2024-02-02T06:25:51.771Z,18.97
2024-02-02T06:26:51.815Z,18.97
2024-02-02T06:27:51.848Z,18.98
2024-02-02T06:28:51.879Z,18.98
2024-02-02T06:29:51.959Z,18.98
2024-02-02T06:30:52.014Z,18.98
2024-02-02T06:31:52.101Z,18.99
2024-02-02T06:32:52.227Z,18.99
2024-02-02T06:33:52.232Z,18.99
2024-02-02T06:34:52.236Z,19.00
2024-02-02T06:35:52.230Z,18.99
2024-02-02T06:36:52.244Z,19.01
2024-02-02T06:37:52.278Z,19.00
2024-02-02T06:38:52.360Z,19.00
2024-02-02T06:39:52.345Z,19.01
2024-02-02T06:40:52.391Z,19.01
2024-02-02T06:41:52.456Z,19.02
2024-02-02T06:42:52.486Z,19.02
2024-02-02T06:43:52.546Z,19.02
2024-02-02T06:44:52.646Z,19.02
2024-02-02T06:45:52.635Z,19.02
2024-02-02T06:46:52.685Z,19.03
2024-02-02T06:47:52.776Z,19.03
2024-02-02T06:48:52.897Z,19.03
2024-02-02T06:49:52.864Z,19.03
2024-02-02T06:50:52.864Z,19.04
2024-02-02T06:51:52.874Z,19.04
2024-02-02T06:52:52.917Z,19.05
2024-02-02T06:53:53.002Z,19.07
2024-02-02T06:54:52.978Z,19.08
2024-02-02T06:55:53.140Z,19.09
2024-02-02T06:56:53.118Z,19.11
2024-02-02T06:57:53.112Z,19.12
2024-02-02T06:58:53.234Z,19.14
2024-02-02T06:59:53.155Z,19.15
2024-02-02T07:00:53.304Z,19.17
2024-02-02T07:01:53.193Z,19.18
2024-02-02T07:02:53.280Z,19.19
2024-02-02T07:03:53.315Z,19.19
2024-02-02T07:04:53.262Z,19.21
2024-02-02T07:05:53.359Z,19.21
2024-02-02T07:06:53.346Z,19.21
2024-02-02T07:07:53.328Z,19.23
2024-02-02T07:08:53.361Z,19.23
2024-02-02T07:09:53.326Z,19.24
2024-02-02T07:10:53.401Z,19.25
2024-02-02T07:11:53.460Z,19.26
2024-02-02T07:12:53.456Z,19.27
2024-02-02T07:13:53.414Z,19.28
2024-02-02T07:14:53.452Z,19.29
2024-02-02T07:15:53.430Z,19.30
2024-02-02T07:16:53.479Z,19.30
2024-02-02T07:17:53.582Z,19.31
2024-02-02T07:18:53.654Z,19.31
2024-02-02T07:19:53.558Z,19.31
2024-02-02T07:20:53.567Z,19.32
2024-02-02T07:21:53.582Z,19.33
2024-02-02T07:22:53.504Z,19.33
2024-02-02T07:23:53.678Z,19.34
2024-02-02T07:24:53.573Z,19.35
2024-02-02T07:25:53.745Z,19.36
2024-02-02T07:26:53.592Z,19.36
2024-02-02T07:27:53.578Z,19.36
2024-02-02T07:28:53.720Z,19.37
2024-02-02T07:29:53.611Z,19.38
2024-02-02T07:30:53.576Z,19.37
2024-02-02T07:31:53.591Z,19.39
2024-02-02T07:32:53.664Z,19.39
2024-02-02T07:33:53.681Z,19.40
2024-02-02T07:34:56.934Z,19.40
2024-02-02T07:35:54.679Z,19.40
2024-02-02T07:36:53.606Z,19.40
2024-02-02T07:37:53.633Z,19.40
2024-02-02T07:38:53.657Z,19.41
2024-02-02T07:39:53.617Z,19.42
2024-02-02T07:40:53.577Z,19.42
2024-02-02T07:41:53.605Z,19.42
2024-02-02T07:42:53.715Z,19.43
2024-02-02T07:43:53.648Z,19.43
2024-02-02T07:44:53.716Z,19.42
2024-02-02T07:45:53.667Z,19.42
2024-02-02T07:46:53.602Z,19.42
2024-02-02T07:47:53.705Z,19.43
2024-02-02T07:48:53.729Z,19.44
2024-02-02T07:49:53.579Z,19.45
2024-02-02T07:50:53.837Z,19.44
2024-02-02T07:51:53.624Z,19.45
2024-02-02T07:52:56.325Z,19.46
2024-02-02T07:53:53.578Z,19.48
2024-02-02T07:54:53.551Z,19.51
2024-02-02T07:55:53.554Z,19.52
2024-02-02T07:56:53.579Z,19.53
2024-02-02T07:57:53.583Z,19.55
2024-02-02T07:58:53.536Z,19.55
2024-02-02T07:59:53.575Z,19.58
2024-02-02T08:00:53.692Z,19.58
2024-02-02T08:01:53.547Z,19.60
2024-02-02T08:02:53.563Z,19.61
2024-02-02T08:03:53.637Z,19.63
2024-02-02T08:04:53.710Z,19.65
2024-02-02T08:05:53.696Z,19.65
2024-02-02T08:06:53.617Z,19.64
2024-02-02T08:07:53.686Z,19.64
2024-02-02T08:08:53.534Z,19.64
2024-02-02T08:09:53.665Z,19.65
2024-02-02T08:10:53.576Z,19.66
2024-02-02T08:11:53.787Z,19.67
2024-02-02T08:12:53.512Z,19.67
2024-02-02T08:13:53.576Z,19.67
2024-02-02T08:14:53.548Z,19.68
2024-02-02T08:15:53.498Z,19.68
2024-02-02T08:16:53.549Z,19.69
2024-02-02T08:17:53.756Z,19.71
2024-02-02T08:18:53.675Z,19.72
2024-02-02T08:19:53.578Z,19.73
2024-02-02T08:20:53.574Z,19.74
2024-02-02T08:21:53.485Z,19.73
2024-02-02T08:22:53.495Z,19.73
2024-02-02T08:23:53.704Z,19.73
2024-02-02T08:24:53.526Z,19.73
2024-02-02T08:25:53.495Z,19.75
2024-02-02T08:26:53.488Z,19.75
2024-02-02T08:27:53.605Z,19.76
2024-02-02T08:28:55.338Z,19.76
2024-02-02T08:29:53.514Z,19.76
2024-02-02T08:30:53.510Z,19.77
2024-02-02T08:31:53.499Z,19.77
2024-02-02T08:32:53.601Z,19.76
2024-02-02T08:33:53.693Z,19.75
2024-02-02T08:34:53.532Z,19.74
2024-02-02T08:35:53.551Z,19.72
2024-02-02T08:36:53.570Z,19.73
2024-02-02T08:37:53.692Z,19.72
2024-02-02T08:38:53.766Z,19.73
2024-02-02T08:39:53.772Z,19.74
2024-02-02T08:40:53.857Z,19.74
2024-02-02T08:41:53.943Z,19.75
2024-02-02T08:42:53.969Z,19.74
2024-02-02T08:43:54.038Z,19.75
2024-02-02T08:44:54.197Z,19.75
2024-02-02T08:45:54.187Z,19.76
2024-02-02T08:46:54.244Z,19.78
2024-02-02T08:47:54.333Z,19.79
2024-02-02T08:48:54.460Z,19.79
2024-02-02T08:49:54.575Z,19.80
2024-02-02T08:50:54.556Z,19.83
2024-02-02T08:51:54.615Z,19.84
2024-02-02T08:52:54.562Z,19.84
2024-02-02T08:53:54.753Z,19.85
2024-02-02T08:54:54.676Z,19.85
2024-02-02T08:55:54.692Z,19.86
2024-02-02T08:56:54.847Z,19.87
2024-02-02T08:57:54.869Z,19.87
2024-02-02T08:58:54.823Z,19.88
2024-02-02T08:59:55.052Z,19.88
2024-02-02T09:00:55.031Z,19.89
2024-02-02T09:01:54.970Z,19.90
2024-02-02T09:38:00.619Z,18.77
2024-02-02T09:39:00.602Z,18.83
2024-02-02T09:40:00.540Z,18.87
2024-02-02T09:41:00.493Z,18.89
2024-02-02T09:42:00.422Z,18.91
2024-02-02T09:43:02.709Z,18.96
2024-02-02T09:44:00.331Z,18.99
2024-02-02T09:45:00.308Z,19.02
2024-02-02T09:46:00.146Z,19.05
2024-02-02T09:47:00.102Z,19.08
2024-02-02T09:48:00.318Z,19.12
2024-02-02T09:49:00.350Z,19.14
2024-02-02T09:49:59.976Z,19.17
2024-02-02T09:51:00.039Z,19.20
2024-02-02T09:51:59.695Z,19.22
2024-02-02T09:52:59.634Z,19.26
2024-02-02T09:53:59.749Z,19.29
2024-02-02T09:54:59.473Z,19.32
2024-02-02T09:55:59.425Z,19.35
2024-02-02T09:56:59.335Z,19.38
2024-02-02T09:57:59.500Z,19.42
2024-02-02T09:58:59.254Z,19.44
2024-02-02T09:59:59.317Z,19.47
2024-02-02T10:01:00.278Z,19.49
2024-02-02T10:02:03.299Z,19.53
2024-02-02T10:03:02.462Z,19.53
2024-02-02T10:04:00.500Z,19.55
2024-02-02T10:04:59.292Z,19.55
2024-02-02T10:05:58.929Z,19.55
2024-02-02T10:06:59.849Z,19.55
2024-02-02T10:07:59.616Z,19.54
2024-02-02T10:08:58.521Z,19.50
2024-02-02T10:09:58.436Z,19.49
2024-02-02T10:10:58.489Z,19.46
2024-02-02T10:11:58.200Z,19.42
2024-02-02T10:12:58.132Z,19.38
2024-02-02T10:13:57.993Z,19.35
2024-02-02T10:14:57.946Z,19.32
2024-02-02T10:15:57.805Z,19.32
2024-02-02T10:16:57.739Z,19.33
2024-02-02T10:17:57.814Z,19.32
2024-02-02T10:18:59.469Z,19.31
2024-02-02T10:19:57.532Z,19.33
2024-02-02T10:20:57.519Z,19.33
2024-02-02T10:21:57.414Z,19.33
2024-02-02T10:22:57.293Z,19.31
2024-02-02T10:24:02.253Z,19.30
2024-02-02T10:24:58.228Z,19.31
2024-02-02T10:25:57.135Z,19.33
2024-02-02T10:26:57.099Z,19.37
2024-02-02T10:27:56.937Z,19.40
2024-02-02T10:28:56.869Z,19.42
2024-02-02T10:29:56.820Z,19.45
2024-02-02T10:30:56.764Z,19.46
2024-02-02T10:31:56.671Z,19.49
2024-02-02T10:32:56.652Z,19.50
2024-02-02T10:33:56.557Z,19.52
2024-02-02T10:34:56.430Z,19.53
2024-02-02T10:35:56.379Z,19.55
2024-02-02T10:36:56.313Z,19.57
2024-02-02T10:37:56.336Z,19.59
2024-02-02T10:38:56.303Z,19.60
2024-02-02T10:39:56.229Z,19.61
2024-02-02T10:40:56.132Z,19.62
2024-02-02T10:41:56.190Z,19.64
2024-02-02T10:42:56.081Z,19.65
2024-02-02T10:43:56.346Z,19.67
2024-02-02T10:44:55.985Z,19.68
2024-02-02T10:45:55.915Z,19.69
2024-02-02T10:46:55.885Z,19.69
2024-02-02T10:47:55.948Z,19.69
2024-02-02T10:48:55.936Z,19.71
2024-02-02T10:49:55.885Z,19.73
2024-02-02T10:50:55.679Z,19.73
2024-02-02T10:51:55.587Z,19.75
2024-02-02T10:52:55.527Z,19.76
2024-02-02T10:53:55.503Z,19.77
2024-02-02T10:54:55.463Z,19.78
2024-02-02T10:55:55.307Z,19.80
2024-02-02T10:56:55.293Z,19.82
2024-02-02T10:57:55.213Z,19.84
2024-02-02T10:58:56.758Z,19.84
2024-02-02T10:59:55.192Z,19.86
2024-02-02T11:00:55.048Z,19.88
2024-02-02T11:01:54.941Z,19.88
2024-02-02T11:02:55.244Z,19.90
2024-02-02T11:03:54.872Z,19.92
2024-02-02T11:04:54.782Z,19.94
2024-02-02T11:05:54.902Z,19.96
2024-02-02T11:06:54.852Z,19.99
2024-02-02T11:07:54.718Z,20.00
2024-02-02T11:08:58.270Z,20.03
2024-02-02T11:09:55.233Z,20.04
2024-02-02T11:10:54.543Z,20.05
2024-02-02T11:11:54.476Z,20.07
2024-02-02T11:12:54.406Z,20.07
2024-02-02T11:13:54.280Z,20.07
2024-02-02T11:14:54.207Z,20.08
2024-02-02T11:15:54.167Z,20.09
2024-02-02T11:16:54.070Z,20.09
2024-02-02T11:17:54.003Z,20.10
2024-02-02T11:18:54.037Z,20.09
2024-02-02T11:19:53.853Z,20.10
2024-02-02T11:20:53.686Z,20.10
2024-02-02T11:21:53.584Z,20.10
2024-02-02T11:22:53.527Z,20.11
2024-02-02T11:23:53.425Z,20.13
2024-02-02T11:24:53.335Z,20.17
2024-02-02T11:25:53.236Z,20.21
2024-02-02T11:26:53.388Z,20.23
2024-02-02T11:27:55.607Z,20.26
2024-02-02T11:28:53.216Z,20.28
2024-02-02T11:29:53.190Z,20.29
2024-02-02T11:30:53.129Z,20.31
2024-02-02T11:31:53.106Z,20.31
2024-02-02T11:32:53.150Z,20.32
2024-02-02T11:33:53.068Z,20.31
2024-02-02T11:34:53.011Z,20.31
2024-02-02T11:35:52.982Z,20.32
2024-02-02T11:36:52.972Z,20.33
2024-02-02T11:37:52.921Z,20.33
2024-02-02T11:38:52.937Z,20.35
2024-02-02T11:39:52.889Z,20.35
2024-02-02T11:40:52.938Z,20.34
2024-02-02T11:41:52.842Z,20.33
2024-02-02T11:42:52.811Z,20.34
2024-02-02T11:43:52.783Z,20.33
2024-02-02T11:44:52.757Z,20.34
2024-02-02T11:45:52.717Z,20.32
2024-02-02T11:46:52.677Z,20.32
2024-02-02T11:47:52.705Z,20.31
2024-02-02T11:48:52.796Z,20.31
2024-02-02T11:49:52.626Z,20.32
2024-02-02T11:50:52.572Z,20.32
2024-02-02T11:51:52.528Z,20.31
2024-02-02T11:52:52.494Z,20.30
2024-02-02T11:53:52.467Z,20.30
2024-02-02T11:54:52.485Z,20.29
2024-02-02T11:55:52.414Z,20.29
2024-02-02T11:56:52.410Z,20.28
2024-02-02T11:57:52.418Z,20.30
2024-02-02T11:58:52.401Z,20.29
2024-02-02T11:59:54.638Z,20.28
2024-02-02T12:00:52.416Z,20.27
2024-02-02T12:01:52.193Z,20.28
2024-02-02T12:02:52.123Z,20.28
2024-02-02T12:03:52.035Z,20.28
2024-02-02T12:04:51.966Z,20.26
2024-02-02T12:05:51.827Z,20.26
2024-02-02T12:06:51.861Z,20.25
2024-02-02T12:07:51.690Z,20.24
2024-02-02T12:08:51.592Z,20.24
2024-02-02T12:09:51.494Z,20.24
2024-02-02T12:10:51.439Z,20.25
2024-02-02T12:11:51.333Z,20.25
2024-02-02T12:12:51.322Z,20.27
2024-02-02T12:13:51.167Z,20.28
2024-02-02T12:14:51.084Z,20.28
2024-02-02T12:15:51.090Z,20.28
2024-02-02T12:16:50.936Z,20.31
2024-02-02T12:17:50.847Z,20.30
2024-02-02T12:18:51.032Z,20.30
2024-02-02T12:19:50.848Z,20.32
2024-02-02T12:20:50.631Z,20.32
2024-02-02T12:21:50.509Z,20.32
2024-02-02T12:22:50.430Z,20.33
2024-02-02T12:23:50.380Z,20.32
2024-02-02T12:24:50.275Z,20.32
2024-02-02T12:25:50.197Z,20.32
2024-02-02T12:26:50.079Z,20.33
2024-02-02T12:27:50.004Z,20.33
2024-02-02T12:28:50.269Z,20.32
2024-02-02T12:29:49.815Z,20.33
2024-02-02T12:30:49.760Z,20.33
2024-02-02T12:31:49.665Z,20.32
2024-02-02T12:32:49.636Z,20.31
2024-02-02T12:33:49.678Z,20.29
2024-02-02T12:34:49.679Z,20.27
2024-02-02T12:35:49.555Z,20.26
2024-02-02T12:36:49.528Z,20.26
2024-02-02T12:37:49.463Z,20.23
2024-02-02T12:38:49.455Z,20.23
2024-02-02T12:39:49.362Z,20.22
2024-02-02T12:40:49.307Z,20.21
2024-02-02T12:41:49.220Z,20.21
2024-02-02T12:42:49.230Z,20.19
2024-02-02T12:43:49.074Z,20.18
2024-02-02T12:44:48.973Z,20.16
2024-02-02T12:45:48.925Z,20.15
2024-02-02T12:46:48.813Z,20.13
2024-02-02T12:47:48.822Z,20.12
2024-02-02T12:48:48.765Z,20.12
2024-02-02T12:49:48.678Z,20.12
2024-02-02T12:50:48.536Z,20.12
2024-02-02T12:51:48.512Z,20.12
2024-02-02T12:52:48.412Z,20.11
2024-02-02T12:53:48.353Z,20.11
2024-02-02T12:54:48.279Z,20.12
2024-02-02T12:55:48.205Z,20.12
2024-02-02T12:56:48.114Z,20.12
2024-02-02T12:57:48.023Z,20.12
2024-02-02T12:58:48.003Z,20.11
2024-02-02T12:59:47.913Z,20.10
2024-02-02T13:00:48.042Z,20.09
2024-02-02T13:01:47.826Z,20.08
2024-02-02T13:02:48.636Z,20.08
2024-02-02T13:03:47.794Z,20.07
2024-02-02T13:04:47.639Z,20.06
2024-02-02T13:05:47.570Z,20.05
2024-02-02T13:06:47.531Z,20.03
2024-02-02T13:07:47.451Z,20.02
2024-02-02T13:08:47.447Z,20.01
2024-02-02T13:09:47.304Z,19.99
2024-02-02T13:10:47.231Z,19.97
2024-02-02T13:11:47.204Z,19.96
2024-02-02T13:12:47.153Z,19.95
2024-02-02T13:13:47.031Z,19.95
2024-02-02T13:14:46.954Z,19.95
2024-02-02T13:15:46.970Z,19.94
2024-02-02T13:16:46.887Z,19.95
2024-02-02T13:17:46.796Z,19.95
2024-02-02T13:18:46.883Z,19.95
2024-02-02T13:19:47.198Z,19.95
2024-02-02T13:20:46.697Z,19.95
2024-02-02T13:21:46.546Z,19.95
2024-02-02T13:22:46.459Z,19.96
2024-02-02T13:23:46.438Z,19.96
2024-02-02T13:24:46.445Z,19.95
2024-02-02T13:25:46.311Z,19.95
2024-02-02T13:26:46.267Z,19.94
2024-02-02T13:27:46.297Z,19.92